Latest Weather Observations for Horsley Park

IDN60801

Issued at 5:02 am EST Tuesday 27 June 2017 (issued every 30 minutes, with the page automatically refreshed every 10 minutes)

About weather observations | Map of weather stations | Latest weather observations for NSW | Other Formats
Station Details ID: 067119 Name: HORSLEY PARK EQUESTRIAN CENTRE AWS Lat: -33.85 Lon: 150.86 Height: 100.0 m
Data from the previous 72 hours. | See also: Recent months at Horsley Park
Date/Time
EST
Temp
°C
App
Temp
°C
Dew
Point
°C
Rel
Hum
%
Delta-T
°C
Wind Press
QNH
hPa
Press
MSL
hPa
Rain since
9am
mm
Dir  Spd
km/h
Gust
km/h
Spd
kts
Gust
kts
27/05:00am 5.8 3.6 3.3 84 1.0 WNW 4 7 2 4 - - 0.0
27/04:30am 5.2 2.9 2.6 83 1.1 NW 4 7 2 4 - - 0.0
27/04:00am 7.7 4.6 3.7 76 1.7 WSW 9 15 5 8 - - 0.0
27/03:30am 8.0 4.9 3.7 74 1.9 SW 9 15 5 8 - - 0.0
27/03:00am 8.4 4.6 3.7 72 2.0 SW 13 19 7 10 - - 0.0
27/02:30am 8.5 4.6 3.6 71 2.1 SW 13 17 7 9 - - 0.0
27/02:00am 8.7 4.9 4.1 73 2.0 SW 13 17 7 9 - - 0.0
27/01:30am 7.6 5.1 3.6 76 1.7 WSW 6 11 3 6 - - 0.0
27/01:00am 8.6 5.5 3.8 72 2.1 SW 9 13 5 7 - - 0.0
27/12:30am 9.0 5.6 4.0 71 2.2 SW 11 17 6 9 - - 0.0
27/12:00am 9.1 6.4 3.7 69 2.4 SW 7 11 4 6 - - 0.0
 
Date/Time
EST
Temp
°C
App
Temp
°C
Dew
Point
°C
Rel
Hum
%
Delta-T
°C
Wind Press
QNH
hPa
Press
MSL
hPa
Rain since
9am
mm
Dir  Spd
km/h
Gust
km/h
Spd
kts
Gust
kts
26/11:30pm 9.8 6.7 3.8 66 2.6 SW 9 17 5 9 - - 0.0
26/11:00pm 10.4 7.4 3.9 64 2.9 SW 9 13 5 7 - - 0.0
26/10:30pm 10.7 7.7 4.2 64 2.9 SW 9 13 5 7 - - 0.0
26/10:00pm 11.3 8.4 4.5 63 3.1 SW 9 13 5 7 - - 0.0
26/09:30pm 11.4 8.9 4.6 63 3.1 SW 7 9 4 5 - - 0.0
26/09:00pm 11.3 9.1 5.2 66 2.8 SW 6 7 3 4 - - 0.0
26/08:30pm 10.7 8.5 5.5 70 2.4 SW 6 7 3 4 - - 0.0
26/08:00pm 11.5 9.4 5.6 67 2.7 SW 6 7 3 4 - - 0.0
26/07:30pm 11.2 10.2 5.7 69 2.6 CALM 0 0 0 0 - - 0.0
26/07:00pm 9.9 8.0 5.1 72 2.2 SE 4 4 2 2 - - 0.0
26/06:30pm 10.6 8.8 5.2 69 2.5 SE 4 6 2 3 - - 0.0
26/06:00pm 10.1 7.7 4.5 68 2.5 SE 6 6 3 3 - - 0.0
26/05:30pm 11.8 9.4 4.5 61 3.3 SSE 6 7 3 4 - - 0.0
26/05:00pm 12.2 10.8 3.7 56 3.8 CALM 0 0 0 0 - - 0.0
26/04:30pm 15.2 13.3 3.0 44 5.5 SSW 2 4 1 2 - - 0.0
26/04:00pm 15.8 12.9 2.6 41 6.0 S 7 9 4 5 - - 0.0
26/03:30pm 16.2 13.5 3.6 43 5.8 SSE 7 11 4 6 - - 0.0
26/03:00pm 16.8 13.9 2.8 39 6.4 SSW 7 11 4 6 - - 0.0
26/02:30pm 16.9 14.0 2.5 38 6.6 WSW 7 11 4 6 - - 0.0
26/02:00pm 16.9 14.6 2.9 39 6.4 WNW 4 9 2 5 - - 0.0
26/01:30pm 16.8 14.4 5.1 46 5.6 SW 7 13 4 7 - - 0.0
26/01:00pm 16.3 14.0 4.7 46 5.5 SW 6 11 3 6 - - 0.0
26/12:30pm 15.9 13.7 5.2 49 5.1 SW 6 11 3 6 - - 0.0
26/12:00pm 15.5 13.5 6.2 54 4.5 W 6 11 3 6 - - 0.0
26/11:30am 14.5 11.7 5.3 54 4.4 WSW 9 15 5 8 - - 0.0
26/11:00am 14.3 11.9 5.4 55 4.2 W 7 11 4 6 - - 0.0
26/10:30am 13.7 12.2 6.8 63 3.4 W 4 7 2 4 - - 0.0
26/10:00am 12.9 11.3 6.5 65 3.1 NW 4 7 2 4 - - 0.0
26/09:30am 11.2 10.4 6.3 72 2.3 CALM 0 0 0 0 - - 0.0
26/09:00am 10.4 9.6 6.4 76 1.9 CALM 0 0 0 0 - - 0.0
26/08:30am 8.2 7.2 5.8 85 1.1 CALM 0 0 0 0 - - 0.0
26/08:00am 6.2 5.2 5.5 95 0.3 CALM 0 0 0 0 - - 0.0
26/07:30am 4.2 2.8 3.5 95 0.3 CALM 0 4 0 2 - - 0.0
26/07:00am 3.8 2.3 2.9 94 0.4 CALM 0 4 0 2 - - 0.0
26/06:30am 4.2 2.8 3.5 95 0.3 CALM 0 0 0 0 - - 0.0
26/06:00am 4.4 3.0 3.4 93 0.4 CALM 0 4 0 2 - - 0.0
26/05:30am 4.7 2.8 3.0 89 0.7 W 2 6 1 3 - - 0.0
26/05:00am 5.5 3.6 2.8 83 1.1 WNW 2 2 1 1 - - 0.0
26/04:30am 6.8 4.2 4.3 84 1.1 WSW 7 9 4 5 - - 0.0
26/04:00am 6.2 3.9 4.7 90 0.7 W 6 9 3 5 - - 0.0
26/03:30am 5.4 2.8 4.4 93 0.4 SW 7 9 4 5 - - 0.0
26/03:00am 4.9 3.4 2.9 87 0.8 CALM 0 0 0 0 - - 0.0
26/02:30am 6.3 4.1 3.6 83 1.1 SSW 4 7 2 4 - - 0.0
26/02:00am 7.3 5.7 4.6 83 1.2 SW 2 6 1 3 - - 0.0
26/01:30am 6.0 3.8 3.5 84 1.1 SW 4 6 2 3 - - 0.0
26/01:00am 5.5 4.2 4.0 90 0.6 CALM 0 0 0 0 - - 0.0
26/12:30am 6.2 4.9 3.9 85 1.0 CALM 0 0 0 0 - - 0.0
26/12:00am 7.3 5.6 4.1 80 1.4 WSW 2 4 1 2 - - 0.0
 
Date/Time
EST
Temp
°C
App
Temp
°C
Dew
Point
°C
Rel
Hum
%
Delta-T
°C
Wind Press
QNH
hPa
Press
MSL
hPa
Rain since
9am
mm
Dir  Spd
km/h
Gust
km/h
Spd
kts
Gust
kts
25/11:30pm 7.3 6.0 3.9 79 1.5 CALM 0 0 0 0 - - 0.0
25/11:00pm 8.9 7.3 4.5 74 2.0 SW 2 4 1 2 - - 0.0
25/10:30pm 8.9 7.2 4.1 72 2.1 W 2 6 1 3 - - 0.0
25/10:00pm 10.3 8.4 5.1 70 2.4 NW 4 9 2 5 - - 0.0
25/09:30pm 8.9 7.1 3.7 70 2.3 NW 2 4 1 2 - - 0.0
25/09:00pm 9.6 7.9 4.0 68 2.5 NW 2 6 1 3 - - 0.0
25/08:30pm 8.8 7.0 3.2 68 2.4 NW 2 6 1 3 - - 0.0
25/08:00pm 9.5 8.1 3.3 65 2.7 CALM 0 0 0 0 - - 0.0
25/07:30pm 12.1 9.9 3.6 56 3.8 WNW 4 6 2 3 - - 0.0
25/07:00pm 12.5 10.0 4.0 56 3.9 WNW 6 7 3 4 - - 0.0
25/06:30pm 11.9 9.8 3.9 58 3.6 WSW 4 6 2 3 - - 0.0
25/06:00pm 12.8 10.3 3.7 54 4.1 SSW 6 9 3 5 - - 0.0
25/05:30pm 12.6 10.0 4.1 56 3.9 SSW 7 11 4 6 - - 0.0
25/05:00pm 15.3 12.6 3.8 46 5.3 WSW 7 13 4 7 - - 0.0
25/04:30pm 16.5 14.8 4.2 44 5.8 WSW 2 4 1 2 - - 0.0
25/04:00pm 16.7 13.9 3.4 41 6.2 WSW 7 13 4 7 - - 0.0
25/03:30pm 17.3 13.7 2.9 38 6.6 WSW 11 22 6 12 - - 0.0
25/03:00pm 18.1 14.5 2.8 36 7.1 W 11 17 6 9 - - 0.0
25/02:30pm 18.1 15.3 3.2 37 6.9 WNW 7 15 4 8 - - 0.0
25/02:00pm 17.5 14.4 3.8 40 6.4 WNW 9 17 5 9 - - 0.0
25/01:30pm 17.6 15.1 4.6 42 6.2 NW 7 13 4 7 - - 0.0
25/01:00pm 16.9 14.2 3.9 42 6.1 NW 7 17 4 9 - - 0.0
25/12:30pm 15.8 12.7 3.6 44 5.6 WNW 9 15 5 8 - - 0.0
25/12:00pm 15.7 13.2 4.7 48 5.2 NW 7 15 4 8 - - 0.0
25/11:30am 14.8 12.3 3.6 47 5.1 NNW 6 13 3 7 - - 0.0
25/11:00am 14.3 11.9 5.4 55 4.2 NNW 7 11 4 6 - - 0.0
25/10:30am 13.1 10.8 5.5 60 3.6 NNW 7 11 4 6 - - 0.0
25/10:00am 12.1 10.0 5.7 65 3.0 NW 6 7 3 4 - - 0.0
25/09:30am 11.1 9.4 5.8 70 2.5 NW 4 7 2 4 - - 0.0
25/09:00am 10.0 8.4 6.2 77 1.8 WNW 4 7 2 4 - - 0.0
25/08:30am 7.6 6.6 5.4 86 1.0 CALM 0 0 0 0 - - 0.0
25/08:00am 5.0 3.8 4.7 98 0.1 CALM 0 0 0 0 - - 0.0
25/07:30am 3.5 2.0 3.2 98 0.1 CALM 0 0 0 0 - - 0.0
25/07:00am 2.8 1.2 2.2 96 0.2 CALM 0 0 0 0 - - 0.0
25/06:30am 3.2 1.6 2.6 96 0.2 CALM 0 0 0 0 - - 0.0
25/06:00am 2.8 0.7 1.6 92 0.5 NW 2 6 1 3 - - 0.0
25/05:30am 4.5 3.1 3.6 94 0.4 CALM 0 0 0 0 - - 0.0
25/05:00am 4.0 2.1 3.1 94 0.4 W 2 6 1 3 - - 0.0
25/04:30am 3.8 1.9 2.8 93 0.4 W 2 6 1 3 - - 0.0
25/04:00am 4.2 2.3 2.9 91 0.5 WSW 2 6 1 3 - - 0.0
25/03:30am 4.2 2.6 2.7 90 0.6 CALM 0 0 0 0 - - 0.0
25/03:00am 4.4 2.5 2.8 89 0.7 WSW 2 6 1 3 - - 0.0
25/02:30am 5.2 3.3 3.1 86 0.9 WSW 2 4 1 2 - - 0.0
25/02:00am 5.3 3.7 2.7 83 1.1 CALM 0 0 0 0 - - 0.0
25/01:30am 7.5 5.5 4.3 80 1.4 WSW 4 7 2 4 - - 0.0
25/01:00am 7.2 5.5 4.0 80 1.4 WSW 2 7 1 4 - - 0.0
25/12:30am 6.7 5.5 4.4 85 1.0 CALM 0 0 0 0 - - 0.0
25/12:00am 5.7 4.2 3.2 84 1.0 CALM 0 0 0 0 - - 0.0
 
Date/Time
EST
Temp
°C
App
Temp
°C
Dew
Point
°C
Rel
Hum
%
Delta-T
°C
Wind Press
QNH
hPa
Press
MSL
hPa
Rain since
9am
mm
Dir  Spd
km/h
Gust
km/h
Spd
kts
Gust
kts
24/11:30pm 6.1 4.7 3.3 82 1.2 CALM 0 0 0 0 - - 0.0
24/11:00pm 7.0 5.6 3.4 78 1.5 CALM 0 0 0 0 - - 0.0
24/10:30pm 8.4 7.0 3.5 71 2.1 CALM 0 2 0 1 - - 0.0
24/10:00pm 11.2 8.4 3.3 58 3.5 SSW 7 9 4 5 - - 0.0
24/09:30pm 10.8 8.0 3.4 60 3.3 SSW 7 9 4 5 - - 0.0
24/09:00pm 10.7 7.5 3.3 60 3.2 SSW 9 11 5 6 - - 0.0
24/08:30pm 12.0 9.2 3.3 55 3.9 SW 7 13 4 7 - - 0.0
24/08:00pm 12.3 9.7 3.0 53 4.1 WSW 6 6 3 3 - - 0.0
24/07:30pm 12.6 10.0 3.0 52 4.3 SW 6 7 3 4 - - 0.0
24/07:00pm 13.2 10.6 3.3 51 4.4 SW 6 9 3 5 - - 0.0
24/06:30pm 13.0 10.6 4.4 56 3.9 SW 6 9 3 5 - - 0.0
24/06:00pm 12.1 10.9 4.6 60 3.4 CALM 0 0 0 0 - - 0.0
24/05:30pm 12.8 11.0 5.5 61 3.4 SW 4 6 2 3 - - 0.0
24/05:00pm 13.6 12.7 6.0 60 3.6 CALM 0 0 0 0 - - 0.0
24/04:30pm 17.3 16.3 5.6 46 5.7 CALM 0 0 0 0 - - 0.0
24/04:00pm 17.4 15.8 4.7 43 6.1 W 2 7 1 4 - - 0.0
24/03:30pm 17.7 15.4 4.6 42 6.3 WSW 6 9 3 5 - - 0.0
24/03:00pm 18.2 16.0 5.1 42 6.3 WSW 6 13 3 7 - - 0.0
24/02:30pm 18.0 15.5 4.6 41 6.4 SW 7 13 4 7 - - 0.0
24/02:00pm 18.1 16.4 5.7 44 6.1 WNW 4 9 2 5 - - 0.0
24/01:30pm 17.3 14.9 5.3 45 5.8 WSW 7 9 4 5 - - 0.0
24/01:00pm 16.8 14.4 5.1 46 5.6 W 7 13 4 7 - - 0.0
24/12:30pm 17.0 14.2 5.3 46 5.6 WNW 9 15 5 8 - - 0.0
24/12:00pm 16.0 13.5 5.0 48 5.2 WNW 7 17 4 9 - - 0.0
24/11:30am 15.2 13.1 5.7 53 4.6 NW 6 11 3 6 - - 0.0
24/11:00am 14.0 11.9 5.6 57 4.0 NNW 6 9 3 5 - - 0.0
24/10:30am 13.5 11.8 6.1 61 3.5 NNW 4 7 2 4 - - 0.0
24/10:00am 12.1 10.2 5.0 62 3.3 NW 4 7 2 4 - - 0.0
24/09:30am 9.8 7.9 4.8 71 2.3 NW 4 7 2 4 - - 0.0
24/09:00am 9.2 7.7 5.0 75 1.9 NW 2 6 1 3 - - 0.2
24/08:30am 8.0 6.4 4.4 78 1.6 WNW 2 6 1 3 - - 0.2
24/08:00am 7.2 4.7 4.5 83 1.2 WNW 7 11 4 6 - - 0.2
24/07:30am 5.4 3.6 3.7 89 0.7 WNW 2 7 1 4 - - 0.2
24/07:00am 4.9 2.6 2.9 87 0.8 W 4 9 2 5 - - 0.2
24/06:30am 5.9 4.5 3.7 86 0.9 CALM 0 7 0 4 - - 0.2
24/06:00am 5.6 4.2 3.6 87 0.8 CALM 0 0 0 0 - - 0.2
24/05:30am 5.6 4.3 4.1 90 0.6 CALM 0 0 0 0 - - 0.2

Other Formats:

Comma delimited format used in spreadsheet applications
http://www.bom.gov.au/fwo/IDN60801/IDN60801.94760.axf

JavaScript Object Notation format (JSON) in row-major order
http://www.bom.gov.au/fwo/IDN60801/IDN60801.94760.json